Time;durP1;ratioP1;P1;durP2;ratioP2;P2;SDS_P1;SDS_P2;PMS_P1;PMS_P2;Temp;Humidity;BMP_temperature;BMP_pressure;BME280_temperature;BME280_humidity;BME280_pressure;Samples;Min_cycle;Max_cycle;Signal;HPM_P1;HPM_P2
2022/07/05 00:01:47;;;;;;;3.60;3.30;;;18.70;70.20;;;;;;4985870;28;20187;-90
2022/07/05 00:04:12;;;;;;;5.87;3.80;;;18.70;70.70;;;;;;4976734;28;20230;-89
2022/07/05 00:07:17;;;;;;;7.83;3.80;;;18.60;71.20;;;;;;4974821;28;20227;-90
2022/07/05 00:09:24;;;;;;;7.15;4.45;;;18.60;71.50;;;;;;4976377;28;20184;-89
2022/07/05 00:11:50;;;;;;;7.25;4.20;;;18.60;71.50;;;;;;4976640;28;20270;-89
2022/07/05 00:14:15;;;;;;;4.83;4.33;;;18.60;70.20;;;;;;4975036;28;20868;-90
2022/07/05 00:16:41;;;;;;;6.10;4.47;;;18.70;69.70;;;;;;4975089;28;20196;-89
2022/07/05 00:19:07;;;;;;;3.60;3.30;;;18.60;69.60;;;;;;4961110;28;20206;-89
2022/07/05 00:21:32;;;;;;;6.33;4.20;;;18.50;70.60;;;;;;4978688;28;20176;-88
2022/07/05 00:23:58;;;;;;;4.90;3.73;;;18.50;71.20;;;;;;4978691;28;20266;-89
2022/07/05 00:26:24;;;;;;;5.13;4.23;;;18.40;71.30;;;;;;4976363;28;20207;-89
2022/07/05 00:28:50;;;;;;;5.27;4.37;;;18.40;71.20;;;;;;4974421;28;20176;-89
2022/07/05 00:31:15;;;;;;;9.20;3.93;;;18.40;71.70;;;;;;4975763;28;20567;-89
2022/07/05 00:33:41;;;;;;;5.03;3.60;;;18.30;71.60;;;;;;4976234;28;20244;-90
2022/07/05 00:36:07;;;;;;;3.90;3.50;;;18.30;71.70;;;;;;4976478;28;20279;-89
2022/07/05 00:38:34;;;;;;;3.87;3.40;;;18.20;71.60;;;;;;4978086;28;20176;-89
2022/07/05 00:40:59;;;;;;;6.53;4.18;;;18.20;72.40;;;;;;4978881;28;20407;-89
2022/07/05 00:43:25;;;;;;;5.77;5.00;;;18.10;73.10;;;;;;4981485;28;20330;-89
2022/07/05 00:45:51;;;;;;;8.03;4.50;;;18.10;74.00;;;;;;4975524;28;20206;-89
2022/07/05 00:48:16;;;;;;;9.53;4.80;;;18.10;74.40;;;;;;4975384;28;20176;-89
2022/07/05 00:50:42;;;;;;;5.17;4.67;;;18.10;74.80;;;;;;4974578;28;20183;-89
2022/07/05 00:53:08;;;;;;;7.15;4.13;;;18.10;74.90;;;;;;4974271;28;20678;-89
2022/07/05 00:55:34;;;;;;;6.63;5.00;;;18.00;75.10;;;;;;4974337;28;20223;-89
2022/07/05 00:58:15;;;;;;;7.77;4.73;;;18.00;75.20;;;;;;4974150;28;20290;-89
2022/07/05 01:00:41;;;;;;;8.45;5.05;;;18.00;75.20;;;;;;4958303;28;20184;-89
2022/07/05 01:03:07;;;;;;;8.00;4.70;;;18.00;75.50;;;;;;4974470;28;20850;-89
2022/07/05 01:05:33;;;;;;;5.50;4.47;;;18.00;75.50;;;;;;4975439;28;20703;-89
2022/07/05 01:08:00;;;;;;;6.53;4.30;;;18.00;75.60;;;;;;4974928;28;20179;-89
2022/07/05 01:10:27;;;;;;;5.03;4.30;;;18.00;75.60;;;;;;4974162;28;20184;-89
2022/07/05 01:12:53;;;;;;;5.97;4.03;;;18.00;74.90;;;;;;4975272;28;20207;-89
2022/07/05 01:15:21;;;;;;;6.05;4.50;;;18.00;74.40;;;;;;4974180;28;20200;-89
2022/07/05 01:18:12;;;;;;;8.68;5.30;;;18.00;74.70;;;;;;4973872;28;20180;-89
2022/07/05 01:20:38;;;;;;;9.13;5.13;;;18.00;74.80;;;;;;4973997;28;20175;-89
2022/07/05 01:23:04;;;;;;;7.00;4.47;;;17.90;74.90;;;;;;4974191;28;20238;-88
2022/07/05 01:25:30;;;;;;;6.50;5.07;;;18.00;74.40;;;;;;4973764;28;20443;-88
2022/07/05 01:27:59;;;;;;;7.85;4.55;;;17.90;74.80;;;;;;4973274;28;20188;-89
2022/07/05 01:30:25;;;;;;;8.05;5.45;;;17.90;75.10;;;;;;4973641;28;20270;-89
2022/07/05 01:32:51;;;;;;;9.75;4.35;;;17.90;75.00;;;;;;4973427;28;20219;-89
2022/07/05 01:35:23;;;;;;;8.53;4.70;;;17.90;75.30;;;;;;4973970;28;20192;-90
2022/07/05 01:37:50;;;;;;;6.32;4.30;;;17.80;74.90;;;;;;4970487;28;20415;-90
2022/07/05 01:40:17;;;;;;;8.43;4.45;;;17.80;74.50;;;;;;4990012;28;20188;-89
2022/07/05 01:42:42;;;;;;;6.28;4.70;;;17.80;74.80;;;;;;4989350;28;20275;-88
2022/07/05 01:45:08;;;;;;;7.10;4.80;;;17.80;74.90;;;;;;4973700;28;20231;-89
2022/07/05 01:47:44;;;;;;;7.30;4.30;;;17.80;74.70;;;;;;4973203;28;20175;-89
2022/07/05 01:50:13;;;;;;;8.35;4.70;;;17.80;74.70;;;;;;4973604;28;20187;-88
2022/07/05 01:52:43;;;;;;;6.32;4.30;;;17.80;74.70;;;;;;4973591;28;20179;-88
2022/07/05 01:55:09;;;;;;;5.93;3.72;;;17.70;74.90;;;;;;4973399;28;20214;-88
2022/07/05 01:57:35;;;;;;;9.13;4.57;;;17.70;74.90;;;;;;4973165;28;20266;-88
2022/07/05 02:00:01;;;;;;;6.63;4.18;;;17.70;75.20;;;;;;4974736;28;20407;-89
2022/07/05 02:02:27;;;;;;;7.10;4.63;;;17.70;75.10;;;;;;4973420;28;20234;-89
2022/07/05 02:04:52;;;;;;;7.80;4.43;;;17.70;74.90;;;;;;4972879;28;20687;-88
2022/07/05 02:07:18;;;;;;;4.87;4.37;;;17.70;74.30;;;;;;4972705;28;20445;-89
2022/07/05 02:09:44;;;;;;;5.27;3.70;;;17.80;74.00;;;;;;4973095;28;20180;-88
2022/07/05 02:12:10;;;;;;;4.50;4.10;;;17.80;74.20;;;;;;4974473;28;20330;-88
2022/07/05 02:14:36;;;;;;;8.17;3.97;;;17.70;74.50;;;;;;4972811;28;20204;-89
2022/07/05 02:17:01;;;;;;;7.27;4.10;;;17.60;75.00;;;;;;4972483;28;20426;-89
2022/07/05 02:19:27;;;;;;;7.33;4.20;;;17.60;75.30;;;;;;4973183;28;20215;-89
2022/07/05 02:21:53;;;;;;;6.00;3.93;;;17.60;75.20;;;;;;4973260;28;20234;-89
2022/07/05 02:24:20;;;;;;;8.67;4.70;;;17.50;75.20;;;;;;4974097;28;20518;-89
2022/07/05 02:26:47;;;;;;;7.45;4.05;;;17.50;75.80;;;;;;4972179;28;20518;-89
2022/07/05 02:29:12;;;;;;;6.63;4.97;;;17.50;75.20;;;;;;4972750;28;20667;-89
2022/07/05 02:31:38;;;;;;;5.00;4.60;;;17.60;74.70;;;;;;4973153;28;20188;-89
2022/07/05 02:34:04;;;;;;;10.93;4.63;;;17.60;74.10;;;;;;4973096;28;20262;-88
2022/07/05 02:36:29;;;;;;;7.73;5.90;;;17.50;74.70;;;;;;4974351;28;20238;-88
2022/07/05 02:38:55;;;;;;;9.33;5.70;;;17.50;75.70;;;;;;4972536;28;20176;-89
2022/07/05 02:41:21;;;;;;;7.23;5.20;;;17.40;76.10;;;;;;4972677;28;20212;-89
2022/07/05 02:43:47;;;;;;;10.03;5.80;;;17.30;76.60;;;;;;4972733;28;20188;-89
2022/07/05 02:46:12;;;;;;;11.00;5.93;;;17.30;76.80;;;;;;4972609;28;20727;-89
2022/07/05 02:48:57;;;;;;;7.83;5.33;;;17.30;77.00;;;;;;4972351;28;20797;-89
2022/07/05 02:51:22;;;;;;;9.55;5.40;;;17.30;76.90;;;;;;4956542;28;20186;-90
2022/07/05 02:53:48;;;;;;;11.77;6.10;;;17.30;77.00;;;;;;4972306;28;20302;-90
2022/07/05 02:56:14;;;;;;;10.53;6.17;;;17.30;77.20;;;;;;4972651;28;20210;-90
2022/07/05 02:58:39;;;;;;;7.40;5.27;;;17.30;77.20;;;;;;4972154;28;20178;-90
2022/07/05 03:01:05;;;;;;;9.40;5.57;;;17.20;77.00;;;;;;4974008;28;20176;-90
2022/07/05 03:03:31;;;;;;;15.20;6.50;;;17.30;77.20;;;;;;4972443;28;20234;-89
2022/07/05 03:05:56;;;;;;;11.13;7.47;;;17.20;77.10;;;;;;4972289;28;20306;-90
2022/07/05 03:08:22;;;;;;;8.57;6.30;;;17.20;77.20;;;;;;4973019;28;20179;-90
2022/07/05 03:10:56;;;;;;;6.53;5.53;;;17.20;77.10;;;;;;4972348;28;20180;-90
2022/07/05 03:13:21;;;;;;;14.02;6.28;;;17.20;77.30;;;;;;4974571;28;20204;-91
2022/07/05 03:15:47;;;;;;;10.77;7.33;;;17.10;77.40;;;;;;4973123;28;20742;-90
2022/07/05 03:18:13;;;;;;;8.10;6.33;;;17.10;77.20;;;;;;4972895;28;20176;-90
2022/07/05 03:20:38;;;;;;;7.80;7.03;;;17.10;77.00;;;;;;4973075;28;20180;-91
2022/07/05 03:23:04;;;;;;;12.57;7.17;;;17.10;76.80;;;;;;4973329;28;20185;-90
2022/07/05 03:25:30;;;;;;;16.27;6.95;;;17.20;76.50;;;;;;4973030;28;20199;-91
2022/07/05 03:27:56;;;;;;;11.70;6.43;;;17.20;75.80;;;;;;4972712;28;20246;-90
2022/07/05 03:30:22;;;;;;;10.20;6.33;;;17.20;75.70;;;;;;4983570;28;20259;-91
2022/07/05 03:36:15;;;;;;;12.45;8.27;;;17.20;75.80;;;;;;4974513;28;20223;-90
2022/07/05 03:38:41;;;;;;;6.93;5.28;;;17.10;75.90;;;;;;4972249;28;20260;-90
2022/07/05 03:41:07;;;;;;;6.90;6.20;;;17.10;75.80;;;;;;4972782;28;20267;-89
2022/07/05 03:43:32;;;;;;;11.00;7.10;;;17.10;75.40;;;;;;4973810;28;20415;-89
2022/07/05 03:45:58;;;;;;;10.70;7.20;;;17.20;75.30;;;;;;4974281;28;20200;-89
2022/07/05 03:48:24;;;;;;;10.70;7.10;;;17.20;75.60;;;;;;4974989;28;20192;-90
2022/07/05 03:50:49;;;;;;;9.33;6.10;;;17.20;75.50;;;;;;4972803;28;20192;-90
2022/07/05 03:53:15;;;;;;;9.30;6.03;;;17.30;74.80;;;;;;4973753;28;20212;-90
2022/07/05 03:55:44;;;;;;;10.93;7.77;;;17.30;75.10;;;;;;4972748;28;20207;-89
2022/07/05 03:58:10;;;;;;;14.40;7.03;;;17.20;75.30;;;;;;4972589;28;20633;-90
2022/07/05 04:00:36;;;;;;;7.17;5.93;;;17.20;75.20;;;;;;4973574;28;20190;-90
2022/07/05 04:03:01;;;;;;;7.80;6.20;;;17.40;74.40;;;;;;4973994;28;20194;-90
2022/07/05 04:05:27;;;;;;;13.40;6.10;;;17.40;73.60;;;;;;4976897;28;20223;-90
2022/07/05 04:07:55;;;;;;;11.73;5.73;;;17.50;73.60;;;;;;4982324;28;20210;-91
2022/07/05 04:10:21;;;;;;;9.50;5.82;;;17.50;73.50;;;;;;4979226;28;20176;-89
2022/07/05 04:12:47;;;;;;;28.77;6.60;;;17.60;73.00;;;;;;4975951;28;20176;-90
2022/07/05 04:15:13;;;;;;;14.10;6.23;;;17.60;72.70;;;;;;4976088;28;20203;-89
2022/07/05 04:17:46;;;;;;;14.32;7.18;;;17.50;73.40;;;;;;4980493;28;20458;-89
2022/07/05 04:20:12;;;;;;;14.98;7.55;;;17.40;74.10;;;;;;4977378;28;20176;-89
2022/07/05 04:22:38;;;;;;;5.97;5.27;;;17.50;74.20;;;;;;4975924;28;20186;-89
2022/07/05 04:25:16;;;;;;;11.50;6.57;;;17.50;74.10;;;;;;4975824;28;20702;-90
2022/07/05 04:27:42;;;;;;;10.38;6.38;;;17.50;74.10;;;;;;4975927;28;20168;-89
2022/07/05 04:30:09;;;;;;;8.52;6.97;;;17.50;73.80;;;;;;4976027;28;20208;-90
2022/07/05 04:32:34;;;;;;;8.57;6.00;;;17.50;73.70;;;;;;4959308;28;20184;-89
2022/07/05 04:35:00;;;;;;;10.63;6.13;;;17.50;73.60;;;;;;4976408;28;20222;-89
2022/07/05 04:37:26;;;;;;;18.23;6.17;;;17.70;73.00;;;;;;4975258;28;20189;-90
2022/07/05 04:39:51;;;;;;;8.20;5.60;;;17.80;71.60;;;;;;4976590;28;20656;-90
2022/07/05 04:42:17;;;;;;;10.00;6.17;;;17.80;72.20;;;;;;4975063;28;20621;-90
2022/07/05 04:44:42;;;;;;;9.43;5.90;;;17.70;72.60;;;;;;4974895;28;20547;-90
2022/07/05 04:47:08;;;;;;;9.70;6.57;;;17.80;72.80;;;;;;4959174;28;20254;-90
2022/07/05 04:49:34;;;;;;;12.57;6.67;;;17.90;72.50;;;;;;4975227;28;20184;-89
2022/07/05 04:52:00;;;;;;;7.57;6.50;;;17.80;72.50;;;;;;4975204;28;20180;-89
2022/07/05 04:54:25;;;;;;;10.63;5.40;;;17.80;72.60;;;;;;4975069;28;20223;-90
2022/07/05 04:56:51;;;;;;;9.10;5.77;;;17.90;72.50;;;;;;4959185;28;20180;-90
2022/07/05 04:59:16;;;;;;;9.50;6.00;;;18.00;72.30;;;;;;4975045;28;20271;-90
2022/07/05 05:01:42;;;;;;;8.47;6.03;;;18.20;71.30;;;;;;4975705;28;20176;-90
2022/07/05 05:04:08;;;;;;;11.13;6.80;;;18.20;71.20;;;;;;4976705;28;20184;-90
2022/07/05 05:06:33;;;;;;;12.37;6.90;;;18.30;71.50;;;;;;4975055;28;20215;-90
2022/07/05 05:08:59;;;;;;;9.20;6.20;;;18.10;71.70;;;;;;4976075;28;20229;-90
2022/07/05 05:11:25;;;;;;;8.80;6.03;;;18.20;71.70;;;;;;4976185;28;20750;-89
2022/07/05 05:13:50;;;;;;;8.10;6.17;;;18.30;71.60;;;;;;4975381;28;20210;-89
2022/07/05 05:16:16;;;;;;;8.43;6.33;;;18.20;71.50;;;;;;4968975;28;20203;-90
2022/07/05 05:18:42;;;;;;;7.77;6.70;;;18.20;71.60;;;;;;4984506;28;20196;-90
2022/07/05 05:21:07;;;;;;;11.97;7.30;;;18.30;72.00;;;;;;4987377;28;20172;-90
2022/07/05 05:23:33;;;;;;;8.57;6.00;;;18.30;71.50;;;;;;4998483;28;20196;-90
2022/07/05 05:25:59;;;;;;;5.50;4.60;;;18.80;70.40;;;;;;4979213;28;20207;-90
2022/07/05 05:28:24;;;;;;;7.07;4.57;;;19.80;66.90;;;;;;4974906;28;20195;-90
2022/07/05 05:30:50;;;;;;;8.90;5.63;;;20.80;63.90;;;;;;4974292;28;20205;-90
2022/07/05 05:33:16;;;;;;;14.90;6.33;;;22.00;60.10;;;;;;4974750;28;20203;-90
2022/07/05 05:35:42;;;;;;;5.30;4.80;;;22.40;56.40;;;;;;4974433;28;20269;-90
2022/07/05 05:38:08;;;;;;;8.43;4.50;;;22.50;56.00;;;;;;4958292;28;20805;-89
2022/07/05 05:40:34;;;;;;;6.53;4.20;;;22.70;55.20;;;;;;4974679;28;20226;-89
2022/07/05 05:43:04;;;;;;;6.90;4.77;;;23.30;53.90;;;;;;4974232;28;20858;-89
2022/07/05 05:45:30;;;;;;;10.20;6.10;;;24.10;51.70;;;;;;4973681;28;20211;-90
2022/07/05 05:47:57;;;;;;;6.47;5.77;;;24.60;49.40;;;;;;4975166;28;20428;-90
2022/07/05 05:50:26;;;;;;;7.07;5.20;;;24.60;49.70;;;;;;4975192;28;20431;-90
2022/07/05 05:52:53;;;;;;;7.70;4.63;;;25.30;47.70;;;;;;4974360;28;20431;-90
2022/07/05 05:55:20;;;;;;;5.60;4.37;;;25.80;45.00;;;;;;4974238;28;20448;-90
2022/07/05 05:57:50;;;;;;;11.43;5.10;;;26.10;44.50;;;;;;4974477;28;20424;-90
2022/07/05 06:00:17;;;;;;;15.97;5.87;;;26.30;43.60;;;;;;4974025;28;20463;-90
2022/07/05 06:02:44;;;;;;;11.73;5.30;;;26.50;43.20;;;;;;4974048;28;20420;-90
2022/07/05 06:05:10;;;;;;;11.13;6.27;;;26.40;43.00;;;;;;4975398;28;21002;-90
2022/07/05 06:07:51;;;;;;;12.67;6.77;;;26.20;43.00;;;;;;4974709;28;20431;-89
2022/07/05 06:10:28;;;;;;;11.93;6.50;;;24.90;46.40;;;;;;4978405;28;20411;-90
2022/07/05 06:12:57;;;;;;;14.53;6.90;;;24.20;49.80;;;;;;4986629;28;20478;-90
2022/07/05 06:15:22;;;;;;;10.77;5.63;;;24.70;49.10;;;;;;4988894;28;20435;-90
2022/07/05 06:17:48;;;;;;;6.43;4.63;;;25.20;47.50;;;;;;4981361;28;20423;-90
2022/07/05 06:20:20;;;;;;;12.63;7.40;;;25.60;47.10;;;;;;4973501;28;20183;-90
2022/07/05 06:22:46;;;;;;;14.17;7.90;;;25.00;47.90;;;;;;4973598;28;20208;-90
2022/07/05 06:25:12;;;;;;;12.20;7.50;;;24.30;49.50;;;;;;4974689;28;20441;-89
2022/07/05 06:27:45;;;;;;;7.00;4.70;;;24.30;50.30;;;;;;4972258;28;20451;-89
2022/07/05 06:30:13;;;;;;;11.23;7.40;;;24.70;50.20;;;;;;4973634;28;20594;-89
2022/07/05 06:32:39;;;;;;;11.90;7.00;;;24.60;49.40;;;;;;4973924;28;21051;-90
2022/07/05 06:35:06;;;;;;;10.60;5.80;;;24.50;50.40;;;;;;4974812;28;20505;-90
2022/07/05 06:37:42;;;;;;;9.60;4.93;;;25.70;46.70;;;;;;4957061;28;20180;-90
2022/07/05 06:40:09;;;;;;;9.40;5.23;;;26.60;44.50;;;;;;4957270;28;20430;-90
2022/07/05 06:42:35;;;;;;;7.70;4.67;;;27.30;41.60;;;;;;4972927;28;20478;-90
2022/07/05 06:45:01;;;;;;;6.53;4.67;;;27.40;40.60;;;;;;4973106;28;20443;-90
2022/07/05 06:47:26;;;;;;;7.73;4.57;;;27.50;40.60;;;;;;4972755;28;20210;-89
2022/07/05 06:49:52;;;;;;;8.70;4.40;;;27.00;41.20;;;;;;4972963;28;20874;-90
2022/07/05 06:52:18;;;;;;;12.37;5.50;;;26.80;41.40;;;;;;4973032;28;20199;-90
2022/07/05 06:54:43;;;;;;;8.20;4.70;;;26.40;42.10;;;;;;4974119;28;20207;-90
2022/07/05 06:57:13;;;;;;;9.10;4.20;;;26.10;43.50;;;;;;4973246;28;20191;-90
2022/07/05 06:59:39;;;;;;;8.23;5.43;;;25.90;44.20;;;;;;4974906;28;20186;-90
2022/07/05 07:02:04;;;;;;;10.57;5.93;;;25.50;46.50;;;;;;4976151;28;20417;-90
2022/07/05 07:04:30;;;;;;;9.20;4.40;;;24.70;49.20;;;;;;4974907;28;20549;-90
2022/07/05 07:06:56;;;;;;;7.20;4.30;;;24.60;50.00;;;;;;4974034;28;20265;-90
2022/07/05 07:09:22;;;;;;;7.37;4.90;;;24.90;49.30;;;;;;4974428;28;20190;-90
2022/07/05 07:11:49;;;;;;;10.53;5.53;;;24.60;50.40;;;;;;4987912;28;20181;-91
2022/07/05 07:14:16;;;;;;;13.77;6.10;;;24.70;50.20;;;;;;4990961;28;20483;-90
2022/07/05 07:16:42;;;;;;;11.70;5.87;;;24.00;51.50;;;;;;4974028;28;20440;-90
2022/07/05 07:19:08;;;;;;;15.90;6.00;;;23.70;53.20;;;;;;4973308;28;20986;-89
2022/07/05 07:21:33;;;;;;;9.00;6.17;;;23.60;53.90;;;;;;4972473;28;20479;-90
2022/07/05 07:24:11;;;;;;;9.53;5.60;;;23.60;54.40;;;;;;4973932;28;20186;-90
2022/07/05 07:29:22;;;;;;;8.70;4.93;;;23.40;55.10;;;;;;4973822;28;20459;-90
2022/07/05 07:31:48;;;;;;;11.30;4.20;;;23.80;54.70;;;;;;4956517;28;20459;-90
2022/07/05 07:34:14;;;;;;;5.90;4.10;;;24.20;54.00;;;;;;4972235;28;20498;-90
2022/07/05 07:36:40;;;;;;;12.17;4.70;;;24.60;51.60;;;;;;4971703;28;20213;-90
2022/07/05 07:39:06;;;;;;;11.23;4.47;;;24.50;52.00;;;;;;4974110;28;20425;-90
2022/07/05 07:41:32;;;;;;;10.80;4.50;;;24.40;52.30;;;;;;4976420;28;21185;-90
2022/07/05 07:43:59;;;;;;;7.10;3.60;;;24.50;52.00;;;;;;4960470;28;20228;-90
2022/07/05 07:46:25;;;;;;;7.53;5.00;;;24.30;53.00;;;;;;4979185;28;20442;-90
2022/07/05 07:48:51;;;;;;;9.87;4.07;;;24.10;53.70;;;;;;4976087;28;21052;-90
2022/07/05 07:51:21;;;;;;;12.70;4.57;;;24.20;53.50;;;;;;4977341;28;20269;-91
2022/07/05 07:53:47;;;;;;;13.40;4.43;;;24.60;51.30;;;;;;4978107;28;20472;-90
2022/07/05 07:56:12;;;;;;;8.80;3.93;;;24.70;50.50;;;;;;4979103;28;20455;-90
2022/07/05 07:58:38;;;;;;;7.77;4.60;;;24.70;50.70;;;;;;4983696;28;20176;-90
2022/07/05 08:01:10;;;;;;;13.20;4.23;;;24.20;52.80;;;;;;4982124;28;20268;-90
2022/07/05 08:03:37;;;;;;;7.63;3.73;;;24.00;53.60;;;;;;4977990;28;20172;-90
2022/07/05 08:06:03;;;;;;;4.53;3.00;;;23.80;54.20;;;;;;4975649;28;20475;-90
2022/07/05 08:08:28;;;;;;;7.07;3.33;;;23.90;54.60;;;;;;4976353;28;20415;-90
2022/07/05 08:10:54;;;;;;;6.97;3.40;;;24.30;53.30;;;;;;4961776;28;20279;-90
2022/07/05 08:13:20;;;;;;;9.37;3.73;;;24.30;53.30;;;;;;4978523;28;20209;-89
2022/07/05 08:15:45;;;;;;;5.13;3.60;;;24.20;53.90;;;;;;4976650;28;20202;-89
2022/07/05 08:23:39;;;;;;;11.47;3.87;;;24.10;53.90;;;;;;4977344;28;20420;-90
2022/07/05 08:26:05;;;;;;;9.63;3.60;;;24.60;52.20;;;;;;4976067;28;20437;-88
2022/07/05 08:28:31;;;;;;;5.70;3.33;;;24.60;51.70;;;;;;4974936;28;20188;-88
2022/07/05 08:30:57;;;;;;;11.30;4.37;;;24.80;51.30;;;;;;4975987;28;20185;-88
2022/07/05 08:33:24;;;;;;;12.33;4.50;;;24.50;52.00;;;;;;4975965;28;20208;-88
2022/07/05 08:35:56;;;;;;;6.13;3.10;;;24.00;52.90;;;;;;4975091;28;20195;-88
2022/07/05 08:38:22;;;;;;;9.60;3.30;;;24.30;52.20;;;;;;4974941;28;20498;-88
2022/07/05 08:40:50;;;;;;;8.30;4.07;;;24.30;51.00;;;;;;4975356;28;20452;-88
2022/07/05 08:43:17;;;;;;;6.80;4.07;;;24.20;50.60;;;;;;4975251;28;20182;-87
2022/07/05 08:45:43;;;;;;;5.87;3.63;;;23.70;50.90;;;;;;4974971;28;20466;-87
2022/07/05 08:48:10;;;;;;;7.03;3.30;;;23.40;50.90;;;;;;4974274;28;20434;-88
2022/07/05 08:50:39;;;;;;;11.07;5.47;;;22.80;51.60;;;;;;4973839;28;20506;-88
2022/07/05 08:53:06;;;;;;;12.73;4.03;;;22.70;53.20;;;;;;4974847;28;20483;-88
2022/07/05 08:55:33;;;;;;;7.70;4.50;;;22.50;55.30;;;;;;4976510;28;20443;-88
2022/07/05 08:58:02;;;;;;;7.83;4.77;;;22.60;55.50;;;;;;4957826;29;20408;-88
2022/07/05 09:00:28;;;;;;;8.00;4.20;;;23.00;55.20;;;;;;4974292;28;20452;-88
2022/07/05 09:02:55;;;;;;;6.60;5.00;;;23.30;53.80;;;;;;4958267;28;20474;-88
2022/07/05 09:05:21;;;;;;;7.83;4.57;;;23.50;53.10;;;;;;4955527;28;20618;-88
2022/07/05 09:08:00;;;;;;;7.47;3.47;;;23.80;52.10;;;;;;4955489;28;20528;-88
2022/07/05 09:10:31;;;;;;;4.10;3.30;;;23.80;50.50;;;;;;4955578;28;20425;-88
2022/07/05 09:12:58;;;;;;;3.20;2.40;;;24.00;50.20;;;;;;4955814;28;20511;-88
2022/07/05 09:15:25;;;;;;;6.23;3.70;;;24.40;49.40;;;;;;4968938;28;20451;-88
2022/07/05 09:17:50;;;;;;;4.97;2.70;;;24.40;47.90;;;;;;4974077;28;20426;-88
2022/07/05 09:20:18;;;;;;;7.10;3.40;;;24.60;47.20;;;;;;4974106;28;20436;-88
2022/07/05 09:22:52;;;;;;;8.10;3.30;;;24.80;47.90;;;;;;4974414;28;20213;-88
2022/07/05 09:25:23;;;;;;;7.50;3.20;;;24.90;47.40;;;;;;4975654;28;20435;-88
2022/07/05 09:27:56;;;;;;;7.20;3.30;;;25.20;44.60;;;;;;4974019;28;20460;-88
2022/07/05 09:30:41;;;;;;;8.23;2.40;;;25.30;43.60;;;;;;4974679;28;21009;-88
2022/07/05 09:33:15;;;;;;;3.13;2.10;;;24.80;40.90;;;;;;4974118;28;20429;-88
2022/07/05 09:35:43;;;;;;;5.03;3.60;;;24.60;41.90;;;;;;4974095;28;20440;-88
2022/07/05 09:38:20;;;;;;;6.10;2.70;;;24.40;43.00;;;;;;4973447;28;20805;-87
2022/07/05 09:40:47;;;;;;;4.23;2.90;;;24.80;43.60;;;;;;4974290;28;20416;-88
2022/07/05 09:43:15;;;;;;;8.17;4.10;;;25.30;42.90;;;;;;4973871;28;20511;-88
2022/07/05 09:45:51;;;;;;;8.07;3.70;;;25.10;44.30;;;;;;4975154;28;20835;-88
2022/07/05 09:48:17;;;;;;;6.10;2.83;;;24.40;44.30;;;;;;4973673;28;20421;-88
2022/07/05 09:50:46;;;;;;;6.67;3.30;;;24.40;45.20;;;;;;4974347;28;20447;-88
2022/07/05 09:53:12;;;;;;;4.50;2.77;;;24.60;44.00;;;;;;4974639;28;20268;-88
2022/07/05 09:55:38;;;;;;;5.50;2.67;;;24.70;42.70;;;;;;4977063;28;20944;-88
2022/07/05 09:58:04;;;;;;;6.40;3.63;;;24.30;44.80;;;;;;4982099;28;20426;-88
2022/07/05 10:00:34;;;;;;;7.20;5.30;;;23.90;46.90;;;;;;4994701;28;20423;-87
2022/07/05 10:03:02;;;;;;;9.87;3.80;;;23.60;48.30;;;;;;4994954;28;20411;-88
2022/07/05 10:05:30;;;;;;;6.63;4.27;;;23.20;49.70;;;;;;4994607;28;20450;-87
2022/07/05 10:07:58;;;;;;;6.80;3.30;;;23.10;50.90;;;;;;4995012;28;20497;-87
2022/07/05 10:10:26;;;;;;;8.17;3.37;;;23.10;51.30;;;;;;4993397;28;20828;-88
2022/07/05 10:12:55;;;;;;;6.60;4.10;;;23.30;51.50;;;;;;4993264;28;20477;-87
2022/07/05 10:15:23;;;;;;;10.00;3.90;;;23.30;51.60;;;;;;4993694;28;20988;-87
2022/07/05 10:18:17;;;;;;;10.43;3.83;;;23.30;51.00;;;;;;4993510;28;20762;-87
2022/07/05 10:20:55;;;;;;;8.63;4.00;;;23.00;49.50;;;;;;4995786;28;20402;-87
2022/07/05 10:23:21;;;;;;;9.10;3.97;;;23.10;49.80;;;;;;4993295;28;20509;-87
2022/07/05 10:25:49;;;;;;;10.53;4.17;;;23.00;49.90;;;;;;4995063;28;20441;-87
2022/07/05 10:28:21;;;;;;;7.50;4.47;;;23.00;50.00;;;;;;4994043;28;20421;-88
2022/07/05 10:30:50;;;;;;;8.20;4.37;;;22.90;49.20;;;;;;4995100;28;20409;-87
2022/07/05 10:33:20;;;;;;;3.83;3.00;;;23.10;48.70;;;;;;4995981;28;20454;-87
2022/07/05 10:35:47;;;;;;;5.40;4.17;;;23.30;48.10;;;;;;4992563;28;20435;-87
2022/07/05 10:38:14;;;;;;;4.87;3.40;;;23.40;47.40;;;;;;4975361;28;20486;-87
2022/07/05 10:40:43;;;;;;;2.97;2.73;;;23.50;48.50;;;;;;4975363;28;20437;-87
2022/07/05 10:43:10;;;;;;;4.53;2.73;;;23.70;47.70;;;;;;4975897;28;20490;-87
2022/07/05 10:45:39;;;;;;;6.33;3.07;;;23.90;47.80;;;;;;4977357;28;20443;-87
2022/07/05 10:48:18;;;;;;;3.40;2.93;;;24.40;45.80;;;;;;4991072;28;20466;-87
2022/07/05 10:51:13;;;;;;;6.70;3.50;;;24.90;45.00;;;;;;4981898;28;20480;-88
2022/07/05 10:53:39;;;;;;;3.83;2.70;;;24.90;45.60;;;;;;4977114;28;20464;-87
2022/07/05 10:56:04;;;;;;;4.87;3.53;;;25.10;44.90;;;;;;4973879;28;20444;-87
2022/07/05 10:58:37;;;;;;;6.10;3.53;;;24.80;45.40;;;;;;4975132;28;20174;-86
2022/07/05 11:01:19;;;;;;;9.47;5.00;;;24.60;45.80;;;;;;4974207;28;20209;-86
2022/07/05 11:03:52;;;;;;;10.50;3.47;;;23.90;47.10;;;;;;4976109;28;20504;-87
2022/07/05 11:06:24;;;;;;;3.70;3.30;;;23.60;47.70;;;;;;4975252;28;20459;-86
2022/07/05 11:08:59;;;;;;;4.93;3.40;;;23.20;47.70;;;;;;4974810;28;20962;-86
2022/07/05 11:11:35;;;;;;;7.37;3.57;;;23.00;50.20;;;;;;4974875;28;20422;-87
2022/07/05 11:14:03;;;;;;;10.77;4.80;;;22.80;51.10;;;;;;4978066;28;20458;-86
2022/07/05 11:16:28;;;;;;;5.30;3.07;;;23.00;50.10;;;;;;4979478;28;20445;-86
2022/07/05 11:19:17;;;;;;;4.20;2.70;;;23.00;51.40;;;;;;4978688;28;20632;-87
2022/07/05 11:22:05;;;;;;;7.63;3.20;;;22.80;51.00;;;;;;4978826;28;20222;-87
2022/07/05 11:24:36;;;;;;;4.83;2.53;;;22.80;50.90;;;;;;4978245;28;20419;-87
2022/07/05 11:27:04;;;;;;;5.37;1.93;;;22.70;51.40;;;;;;4978808;28;20526;-87
2022/07/05 11:29:41;;;;;;;3.23;2.40;;;22.90;50.80;;;;;;4978423;28;20414;-86
2022/07/05 11:32:10;;;;;;;6.80;2.13;;;23.10;49.80;;;;;;4978318;28;20434;-87
2022/07/05 11:34:36;;;;;;;10.00;3.03;;;23.30;48.80;;;;;;4960607;28;20478;-87
2022/07/05 11:37:23;;;;;;;6.80;2.60;;;23.20;48.40;;;;;;4960570;28;20975;-87
2022/07/05 11:40:11;;;;;;;3.20;2.00;;;23.20;48.90;;;;;;4978308;28;20811;-87
2022/07/05 11:42:48;;;;;;;3.83;2.27;;;23.20;49.50;;;;;;4977681;28;20408;-87
2022/07/05 11:45:14;;;;;;;13.00;2.07;;;23.50;49.00;;;;;;4983584;28;20521;-87
2022/07/05 11:47:41;;;;;;;4.23;2.40;;;23.30;49.00;;;;;;4996062;28;20415;-87
2022/07/05 11:50:08;;;;;;;3.40;2.13;;;23.50;47.60;;;;;;4997408;28;20466;-87
2022/07/05 11:52:36;;;;;;;3.70;2.07;;;23.00;47.80;;;;;;4996926;28;20472;-87
2022/07/05 11:55:07;;;;;;;5.23;2.47;;;22.70;48.70;;;;;;4996344;28;20492;-87
2022/07/05 11:57:33;;;;;;;3.47;1.80;;;22.50;50.20;;;;;;4996256;28;20420;-88
2022/07/05 11:59:58;;;;;;;4.97;1.97;;;22.70;49.80;;;;;;4983275;28;20840;-87
2022/07/05 12:02:24;;;;;;;11.33;2.03;;;22.50;49.90;;;;;;4977513;28;20423;-87
2022/07/05 12:04:52;;;;;;;6.00;1.70;;;22.50;50.10;;;;;;4977181;28;20211;-87
2022/07/05 12:07:33;;;;;;;3.30;2.20;;;22.70;49.10;;;;;;4977671;28;20180;-88
2022/07/05 12:12:47;;;;;;;7.00;2.60;;;22.50;49.40;;;;;;4978531;28;20588;-87
2022/07/05 12:15:21;;;;;;;3.40;1.60;;;22.80;48.70;;;;;;4990524;28;20494;-88
2022/07/05 12:17:49;;;;;;;3.03;1.60;;;22.80;49.30;;;;;;4981311;28;20419;-87
2022/07/05 12:20:22;;;;;;;3.70;1.50;;;22.60;49.70;;;;;;4995835;28;20417;-87
2022/07/05 12:22:48;;;;;;;3.50;1.70;;;22.60;49.40;;;;;;4998614;28;20498;-89
2022/07/05 12:25:25;;;;;;;8.63;2.33;;;22.40;50.40;;;;;;5004392;28;20454;-87
2022/07/05 12:27:53;;;;;;;6.63;1.90;;;22.20;50.20;;;;;;4988786;28;20187;-88
2022/07/05 12:30:19;;;;;;;2.40;1.60;;;22.60;48.80;;;;;;4977656;28;20518;-88
2022/07/05 12:32:58;;;;;;;3.73;2.10;;;22.70;48.90;;;;;;4977032;28;20478;-88
2022/07/05 12:35:29;;;;;;;5.93;2.13;;;22.70;48.90;;;;;;4971151;28;20454;-88
2022/07/05 12:37:55;;;;;;;3.83;1.70;;;22.50;49.20;;;;;;4992341;28;20431;-87
2022/07/05 12:40:22;;;;;;;4.30;1.87;;;22.60;48.90;;;;;;4976144;28;20430;-87
2022/07/05 12:43:19;;;;;;;2.90;1.77;;;22.60;48.10;;;;;;4960041;28;20432;-87
2022/07/05 12:46:07;;;;;;;3.97;1.73;;;22.40;48.60;;;;;;4975783;28;20448;-87
2022/07/05 12:48:34;;;;;;;8.37;2.00;;;22.40;48.90;;;;;;4968415;28;20444;-89
2022/07/05 12:51:00;;;;;;;4.20;2.00;;;22.50;49.20;;;;;;4975983;28;20434;-87
2022/07/05 12:59:00;;;;;;;3.40;1.90;;;22.40;48.80;;;;;;4977238;28;21132;-87
2022/07/05 13:01:31;;;;;;;4.17;1.50;;;22.60;48.30;;;;;;4975735;28;20426;-87
2022/07/05 13:04:08;;;;;;;3.03;1.73;;;22.70;47.30;;;;;;4959503;28;20454;-89
2022/07/05 13:06:56;;;;;;;5.80;1.80;;;22.30;47.70;;;;;;4974925;28;20458;-88
2022/07/05 13:09:28;;;;;;;4.00;1.77;;;22.30;47.90;;;;;;4975298;28;20427;-88
2022/07/05 13:12:16;;;;;;;2.63;2.00;;;22.30;47.70;;;;;;4975038;28;20419;-88